createdAt,value
2019-04-29T00:02:56.923Z,8.38
2019-04-29T00:07:58.515Z,8.36
2019-04-29T00:13:01.141Z,8.39
2019-04-29T00:18:04.918Z,8.45
2019-04-29T00:23:06.780Z,8.42
2019-04-29T00:28:09.040Z,8.44
2019-04-29T00:33:10.883Z,8.44
2019-04-29T00:38:20.176Z,8.40
2019-04-29T00:43:24.117Z,8.35
2019-04-29T00:48:25.845Z,8.38
2019-04-29T00:53:28.131Z,8.35
2019-04-29T00:58:29.616Z,8.44
2019-04-29T01:03:31.294Z,8.46
2019-04-29T01:08:33.213Z,8.46
2019-04-29T01:13:34.735Z,8.49
2019-04-29T01:18:36.610Z,8.50
2019-04-29T01:23:38.089Z,8.51
2019-04-29T01:28:50.938Z,8.53
2019-04-29T01:33:54.470Z,8.57
2019-04-29T01:38:57.928Z,8.57
2019-04-29T01:44:06.962Z,8.56
2019-04-29T01:49:08.543Z,8.55
2019-04-29T01:54:10.315Z,8.51
2019-04-29T01:59:11.899Z,8.48
2019-04-29T02:04:13.371Z,8.49
2019-04-29T02:09:16.807Z,8.47
2019-04-29T02:14:18.375Z,8.44
2019-04-29T02:19:19.847Z,8.39
2019-04-29T02:24:21.332Z,8.39
2019-04-29T02:29:22.905Z,8.42
2019-04-29T02:34:24.384Z,8.39
2019-04-29T02:39:28.484Z,8.39
2019-04-29T02:44:30.118Z,8.44
2019-04-29T02:49:31.795Z,8.45
2019-04-29T02:54:33.385Z,8.46
2019-04-29T02:59:34.859Z,8.45
2019-04-29T03:04:41.214Z,8.46
2019-04-29T03:09:45.680Z,8.43
2019-04-29T03:14:47.630Z,8.42
2019-04-29T03:20:08.131Z,8.46
2019-04-29T03:25:09.811Z,8.49
2019-04-29T03:30:13.697Z,8.46
2019-04-29T03:35:15.273Z,8.47
2019-04-29T03:40:16.752Z,8.48
2019-04-29T03:45:18.312Z,8.49
2019-04-29T03:50:21.263Z,8.49
2019-04-29T03:55:38.151Z,8.51
2019-04-29T04:00:26.331Z,8.53
2019-04-29T04:05:38.840Z,8.51
2019-04-29T04:10:40.631Z,8.50
2019-04-29T04:15:42.527Z,8.55
2019-04-29T04:20:44.210Z,8.55
2019-04-29T04:25:45.849Z,8.57
2019-04-29T04:30:47.410Z,8.55
2019-04-29T04:35:49.302Z,8.56
2019-04-29T04:41:01.647Z,8.55
2019-04-29T04:46:03.286Z,8.56
2019-04-29T04:51:04.982Z,8.60
2019-04-29T04:56:06.659Z,8.60
2019-04-29T05:01:08.251Z,8.62
2019-04-29T05:06:09.834Z,8.64
2019-04-29T05:11:11.650Z,8.64
2019-04-29T05:16:13.267Z,8.62
2019-04-29T05:21:14.809Z,8.62
2019-04-29T05:26:16.585Z,8.62
2019-04-29T05:31:18.362Z,8.65
2019-04-29T05:36:25.979Z,8.71
2019-04-29T05:41:30.193Z,8.69
2019-04-29T05:46:35.678Z,8.70
2019-04-29T05:51:39.199Z,8.70
2019-04-29T05:56:40.775Z,8.70
2019-04-29T06:01:42.735Z,8.74
2019-04-29T06:06:45.768Z,8.74
2019-04-29T06:11:48.354Z,8.77
2019-04-29T06:16:52.703Z,8.75
2019-04-29T06:21:53.263Z,8.76
2019-04-29T06:26:54.830Z,8.77
2019-04-29T06:31:56.355Z,8.79
2019-04-29T06:36:57.838Z,8.85
2019-04-29T06:41:59.620Z,8.87
2019-04-29T06:47:01.106Z,8.86
2019-04-29T06:52:03.011Z,8.89
2019-04-29T06:57:04.627Z,8.92
2019-04-29T07:02:09.548Z,8.93
2019-04-29T07:07:09.584Z,8.92
2019-04-29T07:12:13.790Z,8.98
2019-04-29T07:17:16.534Z,9.02
2019-04-29T07:22:20.758Z,9.04
2019-04-29T07:27:21.512Z,9.06
2019-04-29T07:32:22.972Z,9.06
2019-04-29T07:37:24.422Z,9.11
2019-04-29T07:42:31.924Z,9.22
2019-04-29T07:47:30.960Z,9.30
2019-04-29T07:52:33.066Z,9.36
2019-04-29T07:57:34.642Z,9.42
2019-04-29T08:02:36.222Z,9.40
2019-04-29T08:07:38.104Z,9.36
2019-04-29T08:12:42.223Z,9.38
2019-04-29T08:17:43.702Z,9.34
2019-04-29T08:22:45.329Z,9.30
2019-04-29T08:27:46.896Z,9.18
2019-04-29T08:32:48.596Z,9.29
2019-04-29T08:37:51.263Z,9.35
2019-04-29T08:43:11.198Z,9.42
2019-04-29T08:48:12.986Z,9.47
2019-04-29T08:53:15.807Z,9.52
2019-04-29T08:58:17.533Z,9.56
2019-04-29T09:03:23.264Z,9.66
2019-04-29T09:08:22.421Z,9.68
2019-04-29T09:13:23.988Z,9.81
2019-04-29T09:18:25.474Z,9.96
2019-04-29T09:23:31.471Z,10.08
2019-04-29T09:28:33.290Z,10.16
2019-04-29T09:33:34.882Z,10.31
2019-04-29T09:38:36.952Z,10.30
2019-04-29T09:43:42.762Z,10.33
2019-04-29T09:48:44.348Z,10.34
2019-04-29T09:53:45.921Z,10.30
2019-04-29T09:58:47.439Z,10.28
2019-04-29T10:03:58.432Z,10.26
2019-04-29T10:09:00.009Z,10.23
2019-04-29T10:14:01.641Z,10.19
2019-04-29T10:19:11.386Z,10.14
2019-04-29T10:24:14.606Z,10.07
2019-04-29T10:29:20.158Z,10.12
2019-04-29T10:34:26.994Z,10.13
2019-04-29T10:39:45.309Z,10.14
2019-04-29T10:45:06.639Z,10.16
2019-04-29T10:50:15.436Z,10.24
2019-04-29T10:55:17.318Z,10.35
2019-04-29T11:00:26.546Z,10.31
2019-04-29T11:05:30.141Z,10.28
2019-04-29T11:10:32.528Z,10.24
2019-04-29T11:15:36.286Z,10.24
2019-04-29T11:20:37.978Z,10.18
2019-04-29T11:25:51.055Z,10.10
2019-04-29T11:30:49.700Z,10.08
2019-04-29T11:36:11.580Z,10.08
2019-04-29T11:41:19.858Z,10.08
2019-04-29T11:46:17.293Z,10.10
2019-04-29T11:51:23.610Z,10.13
2019-04-29T11:56:25.081Z,10.17
2019-04-29T12:01:51.809Z,10.18
2019-04-29T12:06:56.209Z,10.19
2019-04-29T12:11:56.391Z,10.16
2019-04-29T12:17:00.874Z,10.09
2019-04-29T12:22:08.594Z,10.04
2019-04-29T12:27:10.073Z,10.06
2019-04-29T12:32:29.989Z,10.08
2019-04-29T12:37:37.264Z,10.17
2019-04-29T12:42:41.549Z,10.23
2019-04-29T12:47:45.583Z,10.26
2019-04-29T12:52:47.156Z,10.21
2019-04-29T12:57:51.260Z,10.26
2019-04-29T13:03:02.889Z,10.34
2019-04-29T13:08:06.560Z,10.34
2019-04-29T13:13:08.775Z,10.33
2019-04-29T13:18:23.222Z,10.28
2019-04-29T13:23:34.805Z,10.25
2019-04-29T13:28:30.277Z,10.17
2019-04-29T13:33:31.633Z,10.17
2019-04-29T13:38:33.416Z,10.21
2019-04-29T13:43:35.661Z,10.24
2019-04-29T13:49:06.115Z,10.23
2019-04-29T13:54:05.809Z,10.22
2019-04-29T13:59:10.584Z,10.24
2019-04-29T14:04:24.385Z,10.31
2019-04-29T14:09:21.229Z,10.34
2019-04-29T14:14:24.660Z,10.26
2019-04-29T14:19:41.272Z,10.33
2019-04-29T14:24:30.657Z,10.36
2019-04-29T14:29:32.454Z,10.42
2019-04-29T14:34:38.739Z,10.48
2019-04-29T14:39:40.611Z,10.49
2019-04-29T14:44:42.253Z,10.54
2019-04-29T14:49:54.907Z,10.54
2019-04-29T14:54:55.198Z,10.52
2019-04-29T14:59:57.064Z,10.47
2019-04-29T15:04:58.939Z,10.50
2019-04-29T15:10:00.504Z,10.45
2019-04-29T15:15:12.374Z,10.45
2019-04-29T15:20:32.091Z,10.42
2019-04-29T15:25:33.984Z,10.42
2019-04-29T15:30:36.863Z,10.49
2019-04-29T15:35:39.316Z,10.53
2019-04-29T15:40:43.022Z,10.47
2019-04-29T15:45:44.548Z,10.46
2019-04-29T15:50:46.026Z,10.43
2019-04-29T15:55:47.496Z,10.39
2019-04-29T16:00:49.154Z,10.36
2019-04-29T16:06:19.705Z,10.37
2019-04-29T16:11:23.739Z,10.39
2019-04-29T16:16:25.251Z,10.38
2019-04-29T16:21:32.301Z,10.37
2019-04-29T16:26:32.017Z,10.31
2019-04-29T16:31:33.709Z,10.30
2019-04-29T16:36:35.180Z,10.31
2019-04-29T16:41:36.815Z,10.35
2019-04-29T16:46:39.205Z,10.34
2019-04-29T16:51:41.089Z,10.32
2019-04-29T16:56:42.659Z,10.32
2019-04-29T17:01:45.694Z,10.31
2019-04-29T17:07:11.321Z,10.32
2019-04-29T17:11:56.037Z,10.33
2019-04-29T17:16:55.122Z,10.31
2019-04-29T17:22:23.759Z,10.31
2019-04-29T17:27:01.995Z,10.33
2019-04-29T17:32:07.102Z,10.30
2019-04-29T17:37:09.835Z,10.34
2019-04-29T17:42:11.994Z,10.35
2019-04-29T17:47:33.007Z,10.34
2019-04-29T17:52:35.267Z,10.31
2019-04-29T17:57:55.435Z,10.33
2019-04-29T18:03:05.448Z,10.33
2019-04-29T18:08:16.249Z,10.35
2019-04-29T18:13:23.691Z,10.33
2019-04-29T18:18:26.338Z,10.34
2019-04-29T18:23:27.422Z,10.33
2019-04-29T18:28:29.401Z,10.34
2019-04-29T18:33:31.035Z,10.33
2019-04-29T18:38:32.734Z,10.32
2019-04-29T18:43:35.348Z,10.34
2019-04-29T18:48:37.081Z,10.32
2019-04-29T18:53:38.560Z,10.29
2019-04-29T18:58:42.171Z,10.26
2019-04-29T19:03:48.396Z,10.26
2019-04-29T19:08:50.248Z,10.20
2019-04-29T19:13:52.226Z,10.18
2019-04-29T19:19:00.133Z,10.14
2019-04-29T19:24:00.639Z,10.13
2019-04-29T19:29:05.366Z,10.15
2019-04-29T19:34:05.506Z,10.19
2019-04-29T19:39:09.125Z,10.22
2019-04-29T19:44:11.983Z,10.24
2019-04-29T19:49:15.690Z,10.29
2019-04-29T19:54:23.770Z,10.31
2019-04-29T19:59:21.396Z,10.27
2019-04-29T20:04:28.488Z,10.26
2019-04-29T20:09:31.322Z,10.25
2019-04-29T20:14:36.409Z,10.26
2019-04-29T20:19:58.719Z,10.25
2019-04-29T20:24:58.607Z,10.22
2019-04-29T20:30:00.357Z,10.21
2019-04-29T20:35:08.618Z,10.22
2019-04-29T20:40:12.586Z,10.24
2019-04-29T20:45:15.475Z,10.21
2019-04-29T20:50:17.671Z,10.21
2019-04-29T20:55:19.667Z,10.18
2019-04-29T21:00:25.054Z,10.16
2019-04-29T21:05:27.710Z,10.12
2019-04-29T21:10:30.279Z,10.09
2019-04-29T21:15:45.084Z,10.05
2019-04-29T21:20:47.466Z,10.05
2019-04-29T21:25:49.051Z,10.06
2019-04-29T21:30:50.529Z,10.06
2019-04-29T21:35:57.980Z,10.03
2019-04-29T21:41:15.500Z,10.02
2019-04-29T21:46:24.485Z,10.00
2019-04-29T21:51:20.826Z,9.98
2019-04-29T21:56:22.295Z,9.96
2019-04-29T22:01:25.171Z,9.95
2019-04-29T22:06:29.109Z,9.94
2019-04-29T22:11:30.862Z,9.90
2019-04-29T22:16:32.854Z,9.88
2019-04-29T22:21:36.038Z,9.86
2019-04-29T22:26:37.671Z,9.86
2019-04-29T22:31:39.555Z,9.88
2019-04-29T22:36:41.039Z,9.86
2019-04-29T22:41:48.720Z,9.88
2019-04-29T22:46:49.410Z,9.85
2019-04-29T22:51:55.835Z,9.85
2019-04-29T22:56:56.597Z,9.84
2019-04-29T23:01:59.043Z,9.81
2019-04-29T23:07:00.668Z,9.82
2019-04-29T23:12:03.055Z,9.79
2019-04-29T23:17:06.112Z,9.79
2019-04-29T23:22:15.453Z,9.75
2019-04-29T23:27:19.631Z,9.73
2019-04-29T23:32:22.151Z,9.75
2019-04-29T23:37:27.129Z,9.71
2019-04-29T23:42:27.156Z,9.70
2019-04-29T23:47:28.678Z,9.72
2019-04-29T23:52:30.191Z,9.70
2019-04-29T23:57:42.585Z,9.68
